< < Back
Terminal Aerodrome Forecast


Current Version              Previous Versions:   1  2  3  4  5  6  7  8  9  

Terminal Aerodrome Forecast

393
FTUS42 KMLB 202000 AAA
TAFMCO
TAF AMD
KMCO 202058Z 2021/2118 34012KT P6SM BKN030
      TEMPO 2022/2101 BKN035
     FM210600 35009KT P6SM BKN012 OVC020
     FM211400 34010KT P6SM SCT015 SCT035=



Latest METAR

555
SAUS70 KWBC 210700
MTRMCO
METAR KMCO 210653Z 35009KT 10SM OVC024 17/13 A3006 RMK AO2 SLP178
T01670133


USA.gov is the U.S. government's official web portal to all federal, state and local government web resources and services.